Time;durP1;ratioP1;P1;durP2;ratioP2;P2;SDS_P1;SDS_P2;PMS_P1;PMS_P2;Temp;Humidity;BMP_temperature;BMP_pressure;BME280_temperature;BME280_humidity;BME280_pressure;Samples;Min_cycle;Max_cycle;Signal;HPM_P1;HPM_P2
2022/08/02 00:00:00;;;;;;;3.00;2.17;;;25.60;60.40;;;;;;5014089;28;20397;-67
2022/08/02 00:02:25;;;;;;;2.72;2.47;;;25.60;60.50;;;;;;5014284;28;20939;-68
2022/08/02 00:04:51;;;;;;;2.60;2.30;;;25.60;60.40;;;;;;5013943;28;20396;-68
2022/08/02 00:07:16;;;;;;;2.93;2.10;;;25.60;60.40;;;;;;5014292;28;20396;-68
2022/08/02 00:09:43;;;;;;;2.60;2.20;;;25.60;60.50;;;;;;4996572;28;20425;-67
2022/08/02 00:12:10;;;;;;;2.83;2.08;;;25.60;60.50;;;;;;5014202;28;20870;-67
2022/08/02 00:14:36;;;;;;;3.30;2.30;;;25.60;60.40;;;;;;5014160;28;20495;-67
2022/08/02 00:17:01;;;;;;;2.35;2.00;;;25.60;60.50;;;;;;4995958;28;20385;-68
2022/08/02 00:19:27;;;;;;;2.33;2.13;;;25.60;60.50;;;;;;5012726;28;20424;-67
2022/08/02 00:21:53;;;;;;;2.60;2.40;;;25.60;60.40;;;;;;5011317;28;20495;-68
2022/08/02 00:24:18;;;;;;;2.60;2.38;;;25.60;60.50;;;;;;4994397;28;20386;-68
2022/08/02 00:26:44;;;;;;;3.53;2.33;;;25.60;61.10;;;;;;4993001;28;20470;-68
2022/08/02 00:29:09;;;;;;;2.73;2.53;;;25.60;60.50;;;;;;4992817;28;20406;-68
2022/08/02 00:31:35;;;;;;;2.97;2.42;;;25.60;60.50;;;;;;4994153;28;20747;-68
2022/08/02 00:34:01;;;;;;;2.50;2.30;;;25.60;60.50;;;;;;4994283;28;20900;-68
2022/08/02 00:36:27;;;;;;;2.43;2.23;;;25.60;60.50;;;;;;4993935;28;20410;-67
2022/08/02 00:38:52;;;;;;;3.17;2.58;;;25.60;60.60;;;;;;4976158;28;20387;-67
2022/08/02 00:41:20;;;;;;;2.90;2.30;;;25.50;60.50;;;;;;4976629;28;20403;-67
2022/08/02 00:43:46;;;;;;;2.95;2.60;;;25.60;60.60;;;;;;4993984;28;20740;-67
2022/08/02 00:46:13;;;;;;;2.70;2.50;;;25.50;60.60;;;;;;4976500;28;20434;-68
2022/08/02 00:48:39;;;;;;;2.60;2.30;;;25.50;60.60;;;;;;4993189;28;20740;-68
2022/08/02 00:51:04;;;;;;;3.13;2.40;;;25.50;60.60;;;;;;4993168;28;20405;-68
2022/08/02 00:53:31;;;;;;;2.72;2.38;;;25.50;60.60;;;;;;4993853;28;20469;-67
2022/08/02 00:55:57;;;;;;;2.80;2.50;;;25.60;60.70;;;;;;4993821;28;20448;-68
2022/08/02 00:58:22;;;;;;;2.70;2.50;;;25.50;60.60;;;;;;4993807;28;20387;-67
2022/08/02 01:00:48;;;;;;;3.70;2.40;;;25.50;60.60;;;;;;4993534;28;20387;-68
2022/08/02 01:03:14;;;;;;;2.90;2.60;;;25.50;60.60;;;;;;4993367;28;20390;-68
2022/08/02 01:05:40;;;;;;;2.70;2.37;;;25.50;60.60;;;;;;4993592;28;20401;-67
2022/08/02 01:08:05;;;;;;;2.78;2.50;;;25.50;60.60;;;;;;4976213;28;20403;-68
2022/08/02 01:10:31;;;;;;;2.70;2.28;;;25.50;60.60;;;;;;4993400;28;20932;-67
2022/08/02 01:12:57;;;;;;;2.60;2.30;;;25.50;60.60;;;;;;4993094;28;20395;-67
2022/08/02 01:15:23;;;;;;;2.30;2.10;;;25.50;60.60;;;;;;4993417;28;20453;-67
2022/08/02 01:18:04;;;;;;;2.65;2.40;;;25.50;60.60;;;;;;4993320;28;20386;-68
2022/08/02 01:20:57;;;;;;;2.70;2.50;;;25.50;60.70;;;;;;4993231;28;20402;-68
2022/08/02 01:23:41;;;;;;;2.90;2.50;;;25.50;60.70;;;;;;5001423;28;20999;-68
2022/08/02 01:26:41;;;;;;;2.55;2.30;;;25.50;60.70;;;;;;5012795;28;20429;-68
2022/08/02 01:29:20;;;;;;;2.53;2.33;;;25.50;60.70;;;;;;5011035;28;20404;-68
2022/08/02 01:32:09;;;;;;;2.60;2.40;;;25.50;60.60;;;;;;5012664;28;20466;-68
2022/08/02 01:34:41;;;;;;;2.40;2.20;;;25.50;60.60;;;;;;4995043;28;20401;-68
2022/08/02 01:37:16;;;;;;;2.38;2.17;;;25.50;60.70;;;;;;5011847;28;20488;-68
2022/08/02 01:39:44;;;;;;;2.33;2.13;;;25.50;60.70;;;;;;4995062;28;20484;-67
2022/08/02 01:42:11;;;;;;;2.40;2.20;;;25.50;60.60;;;;;;5012618;28;20401;-67
2022/08/02 01:44:41;;;;;;;2.58;2.38;;;25.50;60.70;;;;;;4994870;28;20423;-67
2022/08/02 01:47:16;;;;;;;2.38;2.17;;;25.50;60.60;;;;;;5012059;28;20397;-68
2022/08/02 01:49:46;;;;;;;2.25;1.98;;;25.50;60.60;;;;;;5011007;28;20456;-67
2022/08/02 01:52:21;;;;;;;2.60;2.10;;;25.50;60.60;;;;;;5012382;28;20478;-67
2022/08/02 01:55:11;;;;;;;2.35;2.03;;;25.50;60.60;;;;;;5011998;28;20397;-67
2022/08/02 01:57:44;;;;;;;2.40;2.20;;;25.50;60.60;;;;;;5012288;28;20388;-68
2022/08/02 02:00:11;;;;;;;2.80;2.20;;;25.50;60.70;;;;;;4994642;28;20492;-68
2022/08/02 02:02:41;;;;;;;2.30;2.10;;;25.50;60.60;;;;;;5011832;28;20413;-67
2022/08/02 02:05:13;;;;;;;2.28;1.83;;;25.50;60.60;;;;;;5011747;28;20388;-67
2022/08/02 02:07:41;;;;;;;2.83;2.20;;;25.50;60.60;;;;;;4994500;28;20401;-67
2022/08/02 02:10:10;;;;;;;2.47;2.28;;;25.50;60.60;;;;;;5011895;28;20862;-68
2022/08/02 02:12:38;;;;;;;2.40;2.20;;;25.50;60.50;;;;;;5010752;28;20899;-67
2022/08/02 02:15:05;;;;;;;3.00;2.35;;;25.40;60.50;;;;;;5011567;28;20857;-67
2022/08/02 02:17:32;;;;;;;2.35;2.15;;;25.50;60.50;;;;;;5011951;28;20385;-68
2022/08/02 02:20:00;;;;;;;2.35;1.92;;;25.50;60.60;;;;;;5011756;28;20393;-68
2022/08/02 02:22:26;;;;;;;2.15;1.95;;;25.50;60.50;;;;;;5011237;28;20407;-68
2022/08/02 02:24:51;;;;;;;2.30;2.03;;;25.50;60.50;;;;;;4993898;28;20483;-67
2022/08/02 02:27:19;;;;;;;2.78;2.08;;;25.40;60.50;;;;;;5011597;28;20376;-68
2022/08/02 02:29:47;;;;;;;2.80;2.17;;;25.50;60.50;;;;;;5011712;28;20858;-67
2022/08/02 02:32:14;;;;;;;3.35;1.90;;;25.40;60.50;;;;;;5011829;28;20385;-68
2022/08/02 02:34:45;;;;;;;2.75;2.00;;;25.40;60.50;;;;;;5010387;28;20454;-67
2022/08/02 02:37:31;;;;;;;2.30;2.10;;;25.50;60.50;;;;;;5011143;28;20443;-67
2022/08/02 02:39:57;;;;;;;2.33;2.10;;;25.40;60.50;;;;;;5011755;28;20392;-68
2022/08/02 02:42:28;;;;;;;2.28;2.05;;;25.40;60.50;;;;;;5011628;28;20476;-68
2022/08/02 02:44:57;;;;;;;2.50;2.30;;;25.40;60.50;;;;;;4993851;28;20393;-67
2022/08/02 02:47:23;;;;;;;2.30;2.10;;;25.40;60.40;;;;;;5010350;28;20397;-68
2022/08/02 02:49:51;;;;;;;2.50;2.30;;;25.40;60.40;;;;;;5014341;28;20500;-68
2022/08/02 02:52:17;;;;;;;2.50;2.30;;;25.40;60.50;;;;;;5015595;28;20400;-67
2022/08/02 02:54:47;;;;;;;2.35;2.15;;;25.40;60.40;;;;;;5014348;28;20403;-67
2022/08/02 02:57:14;;;;;;;2.30;2.10;;;25.40;60.40;;;;;;5006628;28;20425;-68
2022/08/02 02:59:41;;;;;;;2.53;2.10;;;25.40;60.40;;;;;;5012085;28;20401;-68
2022/08/02 03:02:09;;;;;;;3.28;2.10;;;25.40;60.30;;;;;;5015243;28;20393;-67
2022/08/02 03:04:36;;;;;;;2.20;2.00;;;25.40;60.30;;;;;;5015382;28;20482;-67
2022/08/02 03:07:02;;;;;;;2.27;2.03;;;25.40;60.30;;;;;;5014746;28;20958;-67
2022/08/02 03:09:28;;;;;;;2.10;1.80;;;25.40;60.70;;;;;;5015139;28;20923;-67
2022/08/02 03:11:55;;;;;;;3.28;1.90;;;25.40;60.70;;;;;;5015148;28;20397;-67
2022/08/02 03:14:22;;;;;;;2.90;1.95;;;25.40;60.80;;;;;;5015159;28;20404;-67
2022/08/02 03:16:51;;;;;;;3.50;2.28;;;25.40;61.00;;;;;;5015244;28;20415;-67
2022/08/02 03:19:19;;;;;;;6.20;2.30;;;25.40;63.30;;;;;;5015034;28;20424;-68
2022/08/02 03:21:46;;;;;;;3.38;2.50;;;25.50;63.50;;;;;;4997134;28;20777;-68
2022/08/02 03:24:12;;;;;;;4.05;2.30;;;25.50;63.50;;;;;;5015099;28;20392;-67
2022/08/02 03:26:39;;;;;;;4.70;2.70;;;25.60;64.00;;;;;;5013494;28;21050;-68
2022/08/02 03:29:05;;;;;;;6.15;2.42;;;25.60;63.70;;;;;;5014048;28;20436;-68
2022/08/02 03:31:31;;;;;;;10.00;2.88;;;25.60;63.90;;;;;;5013490;28;20409;-68
2022/08/02 03:33:58;;;;;;;5.60;2.70;;;25.60;64.70;;;;;;5015059;28;20476;-68
2022/08/02 03:36:27;;;;;;;5.65;2.60;;;25.60;64.10;;;;;;5014506;28;20409;-68
2022/08/02 03:38:54;;;;;;;6.28;2.88;;;25.60;64.00;;;;;;5014184;28;20488;-67
2022/08/02 03:41:21;;;;;;;7.50;2.83;;;25.60;63.80;;;;;;5013287;28;20462;-67
2022/08/02 03:43:48;;;;;;;6.60;2.70;;;25.70;63.80;;;;;;4997789;28;20447;-67
2022/08/02 03:46:17;;;;;;;6.45;3.10;;;25.70;63.50;;;;;;5014537;28;20753;-68
2022/08/02 03:48:43;;;;;;;11.07;2.70;;;25.70;63.00;;;;;;5014402;28;20403;-68
2022/08/02 03:51:10;;;;;;;5.80;2.65;;;25.60;62.40;;;;;;5014005;28;20415;-68
2022/08/02 03:53:36;;;;;;;4.90;2.83;;;25.60;61.60;;;;;;5014305;28;20400;-68
2022/08/02 03:56:04;;;;;;;4.72;3.10;;;25.60;61.40;;;;;;5014418;28;20389;-68
2022/08/02 03:58:30;;;;;;;5.40;2.70;;;25.60;61.20;;;;;;5014292;28;20404;-68
2022/08/02 04:00:56;;;;;;;6.57;2.80;;;25.60;60.90;;;;;;5013396;28;20385;-68
2022/08/02 04:03:22;;;;;;;4.55;2.88;;;25.60;60.70;;;;;;4996440;28;20397;-69
2022/08/02 04:05:48;;;;;;;7.00;2.78;;;25.60;60.60;;;;;;5014264;28;20408;-68
2022/08/02 04:08:14;;;;;;;6.30;2.97;;;25.50;60.70;;;;;;5014258;28;20420;-69
2022/08/02 04:13:28;;;;;;;7.38;3.03;;;25.50;60.50;;;;;;5014282;28;20459;-67
2022/08/02 04:15:58;;;;;;;11.52;3.03;;;25.50;61.50;;;;;;5014226;28;20761;-67
2022/08/02 04:18:30;;;;;;;7.13;3.00;;;25.50;61.40;;;;;;5013888;28;20385;-68
2022/08/02 04:20:59;;;;;;;10.18;2.80;;;25.60;61.20;;;;;;5013603;28;20405;-68
2022/08/02 04:23:26;;;;;;;8.98;2.67;;;25.60;61.00;;;;;;5013708;28;20388;-68
2022/08/02 04:25:53;;;;;;;6.82;2.80;;;25.50;60.40;;;;;;5013968;28;20389;-69
2022/08/02 04:28:19;;;;;;;6.00;3.10;;;25.50;60.10;;;;;;5013889;28;20425;-69
2022/08/02 04:30:47;;;;;;;8.10;2.88;;;25.50;60.20;;;;;;5012563;28;20420;-68
2022/08/02 04:33:13;;;;;;;4.95;2.80;;;25.50;60.10;;;;;;5013412;28;20389;-68
2022/08/02 04:35:39;;;;;;;6.80;2.70;;;25.40;59.90;;;;;;5013749;28;20428;-68
2022/08/02 04:38:05;;;;;;;10.88;3.50;;;25.40;59.30;;;;;;4996357;28;20436;-68
2022/08/02 04:40:30;;;;;;;7.07;2.90;;;25.40;59.90;;;;;;5013609;28;20411;-67
2022/08/02 04:42:56;;;;;;;10.15;3.20;;;25.40;60.00;;;;;;5012273;28;20401;-68
2022/08/02 04:45:23;;;;;;;9.23;3.40;;;25.40;59.80;;;;;;5013397;28;20865;-67
2022/08/02 04:47:49;;;;;;;7.68;3.05;;;25.30;59.60;;;;;;5012290;28;20938;-67
2022/08/02 04:50:15;;;;;;;11.38;3.38;;;25.30;59.50;;;;;;5013467;28;20417;-67
2022/08/02 04:52:40;;;;;;;7.67;3.23;;;25.30;59.50;;;;;;5013424;28;20396;-67
2022/08/02 04:55:06;;;;;;;7.63;2.90;;;25.30;59.50;;;;;;5011800;28;20397;-67
2022/08/02 05:00:16;;;;;;;4.75;2.78;;;25.30;59.90;;;;;;5013184;28;20387;-67
2022/08/02 05:02:42;;;;;;;6.78;2.92;;;25.30;60.00;;;;;;5013314;28;20393;-67
2022/08/02 05:05:08;;;;;;;6.82;2.70;;;25.30;60.00;;;;;;4995267;28;20718;-67
2022/08/02 05:07:33;;;;;;;7.97;3.00;;;25.30;60.00;;;;;;5012812;28;20558;-67
2022/08/02 05:09:59;;;;;;;7.07;2.80;;;25.30;60.00;;;;;;5013080;28;20421;-67
2022/08/02 05:12:25;;;;;;;6.60;2.80;;;25.30;60.10;;;;;;5012589;28;20385;-67
2022/08/02 05:14:50;;;;;;;5.47;2.80;;;25.30;60.10;;;;;;5011795;28;20458;-67
2022/08/02 05:17:16;;;;;;;6.60;2.70;;;25.30;60.10;;;;;;4994708;28;20451;-67
2022/08/02 05:19:41;;;;;;;5.23;2.80;;;25.30;60.10;;;;;;5011722;28;20441;-67
2022/08/02 05:22:07;;;;;;;6.47;2.90;;;25.30;60.20;;;;;;4995422;28;20733;-67
2022/08/02 05:24:33;;;;;;;6.15;2.97;;;25.30;60.20;;;;;;4995040;28;20404;-67
2022/08/02 05:26:58;;;;;;;4.53;2.63;;;25.30;60.20;;;;;;5012401;28;20387;-67
2022/08/02 05:29:24;;;;;;;6.10;3.07;;;25.30;60.20;;;;;;5012415;28;20423;-67
2022/08/02 05:31:50;;;;;;;5.82;2.83;;;25.30;60.20;;;;;;5012897;28;20779;-68
2022/08/02 05:34:15;;;;;;;6.90;3.00;;;25.30;60.30;;;;;;5012710;28;20385;-67
2022/08/02 05:36:41;;;;;;;6.00;2.87;;;25.30;60.30;;;;;;5012478;28;20431;-67
2022/08/02 05:39:07;;;;;;;5.45;2.70;;;25.30;60.30;;;;;;5012314;28;20397;-67
2022/08/02 05:41:32;;;;;;;5.77;3.07;;;25.30;60.80;;;;;;5012580;28;20811;-68
2022/08/02 05:43:58;;;;;;;6.95;2.97;;;25.30;60.30;;;;;;5012592;28;20447;-67
2022/08/02 05:46:24;;;;;;;5.32;3.08;;;25.30;60.30;;;;;;5012366;28;20816;-67
2022/08/02 05:48:49;;;;;;;4.27;2.77;;;25.30;60.30;;;;;;5012352;28;20397;-67
2022/08/02 05:51:24;;;;;;;5.93;3.17;;;25.20;60.30;;;;;;5012006;28;20396;-67
2022/08/02 05:54:00;;;;;;;4.80;2.78;;;25.30;60.30;;;;;;5012423;28;20955;-67
2022/08/02 05:56:46;;;;;;;6.07;2.72;;;25.30;60.30;;;;;;5012393;28;20780;-67
2022/08/02 05:59:36;;;;;;;5.63;2.85;;;25.30;60.40;;;;;;5011793;28;20435;-67
2022/08/02 06:02:03;;;;;;;5.28;2.95;;;25.30;60.30;;;;;;5012233;28;20400;-67
2022/08/02 06:04:47;;;;;;;6.28;2.97;;;25.30;60.30;;;;;;5012124;28;20400;-67
2022/08/02 06:07:15;;;;;;;7.65;3.20;;;25.30;60.40;;;;;;5011825;28;20930;-67
2022/08/02 06:09:42;;;;;;;6.17;3.27;;;25.30;60.40;;;;;;5012037;28;20498;-67
2022/08/02 06:12:11;;;;;;;7.40;3.13;;;25.20;60.30;;;;;;5010845;28;20492;-67
2022/08/02 06:14:38;;;;;;;7.50;3.50;;;25.30;60.40;;;;;;5011997;28;20408;-67
2022/08/02 06:17:04;;;;;;;8.73;3.72;;;25.30;60.40;;;;;;5011630;28;20389;-67
2022/08/02 06:19:31;;;;;;;7.80;3.53;;;25.30;60.50;;;;;;5011601;28;20466;-67
2022/08/02 06:22:13;;;;;;;7.70;3.90;;;25.30;60.50;;;;;;5011995;28;20490;-67
2022/08/02 06:24:43;;;;;;;8.82;4.13;;;25.30;60.40;;;;;;5011056;28;20400;-67
2022/08/02 06:27:12;;;;;;;11.77;4.32;;;25.30;60.50;;;;;;5011394;28;20885;-67
2022/08/02 06:29:41;;;;;;;12.30;4.78;;;25.30;60.40;;;;;;5011707;28;20927;-67
2022/08/02 06:32:08;;;;;;;14.05;4.53;;;25.30;60.50;;;;;;5011797;28;20400;-67
2022/08/02 06:34:37;;;;;;;10.88;4.63;;;25.30;60.40;;;;;;4994089;28;20780;-67
2022/08/02 06:37:25;;;;;;;16.52;5.22;;;25.30;60.40;;;;;;5011449;28;20417;-67
2022/08/02 06:39:59;;;;;;;11.98;4.68;;;25.30;60.50;;;;;;4994119;28;20404;-67
2022/08/02 06:42:43;;;;;;;14.70;4.47;;;25.30;60.50;;;;;;5011713;28;20392;-67
2022/08/02 06:45:09;;;;;;;13.52;4.75;;;25.30;60.50;;;;;;4993642;28;20517;-67
2022/08/02 06:47:35;;;;;;;11.70;4.63;;;25.30;60.60;;;;;;5011582;28;20463;-67
2022/08/02 06:50:01;;;;;;;13.75;4.68;;;25.30;60.50;;;;;;4994082;28;20424;-67
2022/08/02 06:52:29;;;;;;;12.33;4.60;;;25.30;60.60;;;;;;5011538;28;20396;-67
2022/08/02 06:54:57;;;;;;;14.13;4.72;;;25.30;60.50;;;;;;5011696;28;20384;-66
2022/08/02 06:57:22;;;;;;;12.65;4.50;;;25.30;60.40;;;;;;4993521;28;20411;-68
2022/08/02 06:59:48;;;;;;;10.23;4.30;;;25.30;60.50;;;;;;5011241;28;20488;-67
2022/08/02 07:02:14;;;;;;;12.18;4.10;;;25.30;60.50;;;;;;5011575;28;20399;-67
2022/08/02 07:04:39;;;;;;;14.38;4.40;;;25.30;60.50;;;;;;5011528;28;20745;-67
2022/08/02 07:07:05;;;;;;;12.03;4.30;;;25.30;60.20;;;;;;5011261;28;20404;-67
2022/08/02 07:09:31;;;;;;;16.83;4.78;;;25.30;60.40;;;;;;4993558;28;20838;-67
2022/08/02 07:11:56;;;;;;;17.20;4.40;;;25.30;60.50;;;;;;5011515;28;20396;-70
2022/08/02 07:14:22;;;;;;;18.53;5.67;;;25.30;60.40;;;;;;5011336;28;20415;-68
2022/08/02 07:16:47;;;;;;;20.70;6.05;;;25.40;60.40;;;;;;5011505;28;20401;-68
2022/08/02 07:19:13;;;;;;;22.30;6.15;;;25.30;60.40;;;;;;5011059;28;20869;-68
2022/08/02 07:21:39;;;;;;;21.43;6.03;;;25.40;60.60;;;;;;5011469;28;20547;-68
2022/08/02 07:24:04;;;;;;;20.85;6.13;;;25.30;61.00;;;;;;5010211;28;20404;-68
2022/08/02 07:26:30;;;;;;;24.20;6.43;;;25.30;60.50;;;;;;4993716;28;20397;-68
2022/08/02 07:28:57;;;;;;;22.70;6.60;;;25.30;60.50;;;;;;5011367;28;20424;-68
2022/08/02 07:31:23;;;;;;;22.75;6.45;;;25.40;60.60;;;;;;5010880;28;20439;-68
2022/08/02 07:33:48;;;;;;;25.13;6.80;;;25.40;60.60;;;;;;5011225;28;20429;-68
2022/08/02 07:36:14;;;;;;;25.05;6.07;;;25.40;60.60;;;;;;5014240;28;20415;-68
2022/08/02 07:38:39;;;;;;;28.75;6.82;;;25.40;60.60;;;;;;5014951;28;20393;-67
2022/08/02 07:41:05;;;;;;;29.03;6.70;;;25.40;60.60;;;;;;5014671;28;20400;-67
2022/08/02 07:43:31;;;;;;;28.60;6.57;;;25.40;60.60;;;;;;5014488;28;20411;-68
2022/08/02 07:45:56;;;;;;;28.20;6.73;;;25.40;60.60;;;;;;5014726;28;20470;-67
2022/08/02 07:48:22;;;;;;;27.23;6.53;;;25.40;60.60;;;;;;5014652;28;20888;-68
2022/08/02 07:50:48;;;;;;;27.17;7.63;;;25.40;60.70;;;;;;5014560;28;20421;-67
2022/08/02 07:53:14;;;;;;;32.57;7.80;;;25.40;60.70;;;;;;5014235;28;20393;-68
2022/08/02 07:55:39;;;;;;;26.45;6.93;;;25.40;60.60;;;;;;5014429;28;20400;-68
2022/08/02 07:58:05;;;;;;;26.53;7.03;;;25.40;60.70;;;;;;5014489;28;20385;-67
2022/08/02 08:00:31;;;;;;;25.17;7.15;;;25.40;60.80;;;;;;5011343;28;20401;-68
2022/08/02 08:02:58;;;;;;;31.57;7.60;;;25.40;60.70;;;;;;5011194;28;20420;-68
2022/08/02 08:05:23;;;;;;;30.88;7.20;;;25.40;60.60;;;;;;5013379;28;20405;-68
2022/08/02 08:07:49;;;;;;;24.50;6.55;;;25.40;60.60;;;;;;5006860;28;20452;-67
2022/08/02 08:10:14;;;;;;;24.97;7.20;;;25.40;60.50;;;;;;5004548;28;20420;-68
2022/08/02 08:12:40;;;;;;;22.37;6.77;;;25.40;60.60;;;;;;5014368;28;20443;-67
2022/08/02 08:15:06;;;;;;;24.30;6.93;;;25.40;60.60;;;;;;5012014;28;20749;-69
2022/08/02 08:17:32;;;;;;;22.52;6.75;;;25.40;60.50;;;;;;5004251;28;20402;-67
2022/08/02 08:19:57;;;;;;;27.00;7.00;;;25.40;60.40;;;;;;5008844;28;20489;-67
2022/08/02 08:22:23;;;;;;;35.40;7.43;;;25.50;60.90;;;;;;5009803;28;20743;-67
2022/08/02 08:24:49;;;;;;;43.15;7.78;;;25.40;61.20;;;;;;4983478;28;20436;-68
2022/08/02 08:27:16;;;;;;;56.73;9.17;;;25.50;61.00;;;;;;4985579;28;20395;-68
2022/08/02 08:29:43;;;;;;;36.50;7.72;;;25.50;61.70;;;;;;5008006;28;20424;-69
2022/08/02 08:32:09;;;;;;;40.00;7.60;;;25.50;61.50;;;;;;4996273;28;20387;-67
2022/08/02 08:34:35;;;;;;;44.00;7.70;;;25.50;63.00;;;;;;4994226;28;20398;-68
2022/08/02 08:37:02;;;;;;;40.28;8.02;;;25.50;62.60;;;;;;4994129;28;20414;-68
2022/08/02 08:39:28;;;;;;;39.00;7.15;;;25.50;62.60;;;;;;4993676;28;20477;-68
2022/08/02 08:41:54;;;;;;;35.80;6.95;;;25.60;62.50;;;;;;4994203;28;20919;-67
2022/08/02 08:44:20;;;;;;;33.88;6.85;;;25.50;62.20;;;;;;4993974;28;20394;-67
2022/08/02 08:46:48;;;;;;;32.10;6.50;;;25.50;62.50;;;;;;4993093;28;20415;-68
2022/08/02 08:49:43;;;;;;;25.02;5.95;;;25.60;62.20;;;;;;4993598;28;20406;-67
2022/08/02 08:52:11;;;;;;;25.20;5.75;;;25.60;61.50;;;;;;4992261;28;20399;-67
2022/08/02 08:54:40;;;;;;;22.42;5.30;;;25.60;62.30;;;;;;4993731;28;20406;-68
2022/08/02 08:57:06;;;;;;;24.10;4.70;;;25.60;61.70;;;;;;4976466;28;20456;-68
2022/08/02 08:59:32;;;;;;;16.40;4.60;;;25.60;61.20;;;;;;4993349;28;20401;-68
2022/08/02 09:01:59;;;;;;;19.00;4.53;;;25.60;60.60;;;;;;4992491;28;20400;-68
2022/08/02 09:04:25;;;;;;;18.77;4.28;;;25.60;60.40;;;;;;4993662;28;20410;-68
2022/08/02 09:06:51;;;;;;;14.45;4.00;;;25.60;60.30;;;;;;4993561;28;20867;-67
2022/08/02 09:09:17;;;;;;;16.30;4.50;;;25.60;60.00;;;;;;4993208;28;20443;-67
2022/08/02 09:11:43;;;;;;;16.08;4.75;;;25.60;60.00;;;;;;4993628;28;20501;-68
2022/08/02 09:14:09;;;;;;;17.15;4.30;;;25.60;60.00;;;;;;4993378;28;20890;-67
2022/08/02 09:16:36;;;;;;;17.63;4.63;;;25.60;60.00;;;;;;4993497;28;20898;-68
2022/08/02 09:19:24;;;;;;;13.03;4.03;;;25.60;59.90;;;;;;4975760;28;20417;-67
2022/08/02 09:22:08;;;;;;;16.52;4.40;;;25.60;60.00;;;;;;4992763;28;20394;-67
2022/08/02 09:24:48;;;;;;;15.68;4.43;;;25.60;60.00;;;;;;4993123;28;20518;-67
2022/08/02 09:27:15;;;;;;;14.55;4.32;;;25.60;60.00;;;;;;4991724;28;20395;-67
2022/08/02 09:29:48;;;;;;;13.57;4.53;;;25.60;60.20;;;;;;4991743;28;20437;-67
2022/08/02 09:32:16;;;;;;;14.23;4.47;;;25.60;60.20;;;;;;4975530;28;20411;-67
2022/08/02 09:34:50;;;;;;;15.77;4.25;;;25.60;60.30;;;;;;4993061;28;20401;-69
2022/08/02 09:37:29;;;;;;;11.50;4.40;;;25.60;60.30;;;;;;4975220;28;20414;-68
2022/08/02 09:40:01;;;;;;;10.75;4.13;;;25.60;60.30;;;;;;4975533;28;20422;-68
2022/08/02 09:42:28;;;;;;;10.90;4.03;;;25.60;60.30;;;;;;4992899;28;20383;-67
2022/08/02 09:44:58;;;;;;;10.43;4.20;;;25.60;60.20;;;;;;4992817;28;20497;-67
2022/08/02 09:47:25;;;;;;;11.50;3.80;;;25.60;60.30;;;;;;4992360;28;20435;-68
2022/08/02 09:49:54;;;;;;;10.25;3.78;;;25.60;60.30;;;;;;4992730;28;20420;-70
2022/08/02 09:52:29;;;;;;;11.35;4.20;;;25.60;60.30;;;;;;4992719;28;20766;-68
2022/08/02 09:55:03;;;;;;;13.70;4.13;;;25.60;60.30;;;;;;4992791;28;20445;-69
2022/08/02 09:57:32;;;;;;;10.43;4.15;;;25.60;60.30;;;;;;4974605;28;20795;-68
2022/08/02 09:59:58;;;;;;;9.90;3.72;;;25.60;60.20;;;;;;4992714;28;20405;-67
2022/08/02 10:02:24;;;;;;;10.23;3.75;;;25.60;60.20;;;;;;4992552;28;20794;-67
2022/08/02 10:04:50;;;;;;;10.93;4.05;;;25.60;60.20;;;;;;4975173;28;20398;-68
2022/08/02 10:07:17;;;;;;;13.35;3.65;;;25.60;60.20;;;;;;4992273;28;20402;-67
2022/08/02 10:09:45;;;;;;;16.02;4.53;;;25.60;60.10;;;;;;4992214;28;20417;-67
2022/08/02 10:12:12;;;;;;;23.50;4.85;;;25.60;60.00;;;;;;4992495;28;20394;-68
2022/08/02 10:14:38;;;;;;;27.15;4.55;;;25.60;60.30;;;;;;4992999;28;20397;-68
2022/08/02 10:17:05;;;;;;;22.48;4.70;;;25.60;60.70;;;;;;4993415;28;20405;-68
2022/08/02 10:19:31;;;;;;;20.25;4.30;;;25.70;60.70;;;;;;4998367;28;20412;-68
2022/08/02 10:22:02;;;;;;;20.88;4.30;;;25.70;60.70;;;;;;5002192;28;20488;-67
2022/08/02 10:24:30;;;;;;;21.50;4.60;;;25.70;61.30;;;;;;5001641;28;20543;-68
2022/08/02 10:26:58;;;;;;;21.80;4.70;;;25.70;60.70;;;;;;5001467;28;20387;-68
2022/08/02 10:29:36;;;;;;;16.30;3.80;;;25.70;61.10;;;;;;5001795;28;20426;-68
2022/08/02 10:32:09;;;;;;;26.17;4.40;;;25.70;59.90;;;;;;5004091;28;20396;-68
2022/08/02 10:35:02;;;;;;;20.00;4.45;;;25.70;61.20;;;;;;5003550;28;20950;-68
2022/08/02 10:37:32;;;;;;;20.00;4.50;;;25.70;60.90;;;;;;5001610;28;20512;-68
2022/08/02 10:39:58;;;;;;;20.35;4.25;;;25.70;61.00;;;;;;4986436;28;20393;-68
2022/08/02 10:42:43;;;;;;;29.63;5.10;;;25.70;60.20;;;;;;5002392;28;20441;-68
2022/08/02 10:45:11;;;;;;;22.05;4.30;;;25.80;60.20;;;;;;5002647;28;20447;-67
2022/08/02 10:47:37;;;;;;;20.67;4.43;;;25.80;60.40;;;;;;4986072;28;20896;-67
2022/08/02 10:50:03;;;;;;;22.13;4.03;;;25.80;60.10;;;;;;5002103;28;20572;-67
2022/08/02 10:52:29;;;;;;;14.90;3.90;;;25.70;60.00;;;;;;5003991;28;20427;-67
2022/08/02 10:55:08;;;;;;;13.70;3.80;;;25.70;59.70;;;;;;5001133;28;20402;-68
2022/08/02 10:57:35;;;;;;;14.98;4.38;;;25.70;59.70;;;;;;5003157;28;20430;-68
2022/08/02 11:00:25;;;;;;;22.67;4.55;;;25.70;59.80;;;;;;5003589;28;20404;-67
2022/08/02 11:02:52;;;;;;;17.77;4.00;;;25.70;60.20;;;;;;5001909;28;20393;-68
2022/08/02 11:05:30;;;;;;;13.57;3.80;;;25.80;60.10;;;;;;4983945;28;20410;-68
2022/08/02 11:07:56;;;;;;;18.75;3.95;;;25.80;60.90;;;;;;5001297;28;20743;-68
2022/08/02 11:10:25;;;;;;;14.95;4.18;;;25.80;61.50;;;;;;5001539;28;20422;-67
2022/08/02 11:13:13;;;;;;;10.68;3.55;;;25.80;60.70;;;;;;4993887;28;20450;-67
2022/08/02 11:15:56;;;;;;;14.98;3.95;;;25.80;60.70;;;;;;5007402;28;20876;-67
2022/08/02 11:18:48;;;;;;;26.05;5.70;;;25.80;60.50;;;;;;5004516;28;20402;-68
2022/08/02 11:21:24;;;;;;;29.50;6.32;;;25.80;60.70;;;;;;5004696;28;20476;-68
2022/08/02 11:23:51;;;;;;;16.33;4.53;;;25.80;60.50;;;;;;5004422;28;21029;-67
2022/08/02 11:26:29;;;;;;;17.63;4.78;;;25.90;60.50;;;;;;5005277;28;20378;-68
2022/08/02 11:29:03;;;;;;;14.50;4.25;;;25.90;60.30;;;;;;5005160;28;20771;-68
2022/08/02 11:31:36;;;;;;;17.02;4.43;;;25.90;60.30;;;;;;5004791;28;20771;-67
2022/08/02 11:34:03;;;;;;;14.88;4.10;;;25.90;60.30;;;;;;5008273;28;21217;-67
2022/08/02 11:36:29;;;;;;;14.90;4.70;;;25.90;60.20;;;;;;4984346;28;20444;-68
2022/08/02 11:39:11;;;;;;;16.80;4.90;;;25.90;60.20;;;;;;5007584;28;20922;-69
2022/08/02 11:41:37;;;;;;;13.50;4.30;;;25.90;60.20;;;;;;5002053;28;20395;-67
2022/08/02 11:44:03;;;;;;;16.42;4.18;;;25.90;60.20;;;;;;5005410;28;20558;-68
2022/08/02 11:46:28;;;;;;;17.92;4.35;;;25.90;60.70;;;;;;5004242;28;20492;-68
2022/08/02 11:48:54;;;;;;;15.85;4.38;;;25.80;60.10;;;;;;5001780;28;20903;-68
2022/08/02 11:51:20;;;;;;;17.93;4.40;;;25.80;60.10;;;;;;5004010;28;20807;-68
2022/08/02 11:53:50;;;;;;;20.25;4.40;;;25.80;60.10;;;;;;5004582;28;20394;-68
2022/08/02 11:56:24;;;;;;;17.23;4.63;;;25.80;60.10;;;;;;5004589;28;20397;-68
2022/08/02 11:59:09;;;;;;;14.63;4.20;;;25.80;60.10;;;;;;5007146;28;20389;-68
2022/08/02 12:01:37;;;;;;;14.05;4.20;;;25.80;60.00;;;;;;5003727;28;20468;-68
2022/08/02 12:04:06;;;;;;;14.70;4.23;;;25.80;60.60;;;;;;5006396;28;20384;-68
2022/08/02 12:06:33;;;;;;;15.45;4.57;;;25.80;60.00;;;;;;5007301;28;20406;-68
2022/08/02 12:09:05;;;;;;;12.98;4.25;;;25.80;60.00;;;;;;5007015;28;20389;-68
2022/08/02 12:11:32;;;;;;;12.23;3.80;;;25.80;60.00;;;;;;5005272;28;20414;-68
2022/08/02 12:13:58;;;;;;;13.50;4.32;;;25.80;60.00;;;;;;4978278;28;20899;-68
2022/08/02 12:19:18;;;;;;;11.68;4.00;;;25.80;59.80;;;;;;5005737;28;20380;-68
2022/08/02 12:21:45;;;;;;;12.93;3.92;;;25.80;59.80;;;;;;5001112;28;20398;-68
2022/08/02 12:24:11;;;;;;;13.90;4.00;;;25.80;59.80;;;;;;5002330;28;20476;-68
2022/08/02 12:26:44;;;;;;;9.63;3.70;;;25.80;59.80;;;;;;5009296;28;20408;-68
2022/08/02 12:29:10;;;;;;;11.73;3.83;;;25.80;59.80;;;;;;4998609;28;20389;-67
2022/08/02 12:31:46;;;;;;;11.95;4.00;;;25.80;59.80;;;;;;5005112;28;20841;-68
2022/08/02 12:34:17;;;;;;;10.00;3.90;;;25.80;59.70;;;;;;5006753;28;20383;-68
2022/08/02 12:37:03;;;;;;;9.05;3.72;;;25.80;59.70;;;;;;4996918;28;21041;-68
2022/08/02 12:39:43;;;;;;;11.23;3.65;;;25.90;59.70;;;;;;5005680;28;20403;-68
2022/08/02 12:42:12;;;;;;;8.15;3.60;;;25.90;59.70;;;;;;5006348;28;20397;-68
2022/08/02 12:44:53;;;;;;;10.20;3.70;;;25.90;59.60;;;;;;4997003;28;20394;-68
2022/08/02 12:47:22;;;;;;;9.93;3.40;;;25.90;59.50;;;;;;5007471;28;20759;-68
2022/08/02 12:50:15;;;;;;;11.10;3.60;;;26.00;60.10;;;;;;5002800;28;20424;-68
2022/08/02 12:52:40;;;;;;;8.75;3.40;;;25.90;59.50;;;;;;4996859;28;20387;-68
2022/08/02 12:55:21;;;;;;;9.25;3.35;;;26.00;59.60;;;;;;5007870;28;20413;-67
2022/08/02 12:57:54;;;;;;;8.47;3.30;;;26.00;59.60;;;;;;4985013;28;20900;-68